sensor_id;sensor_type;location;lat;lon;timestamp;P1;durP1;ratioP1;P2;durP2;ratioP2
54881;SDS011;40775;51.448;4.742;2024-01-25T00:01:53;4.82;;;1.80;;
54881;SDS011;40775;51.448;4.742;2024-01-25T00:04:20;7.15;;;2.13;;
54881;SDS011;40775;51.448;4.742;2024-01-25T00:06:49;7.65;;;1.85;;
54881;SDS011;40775;51.448;4.742;2024-01-25T00:09:17;7.22;;;2.13;;
54881;SDS011;40775;51.448;4.742;2024-01-25T00:11:44;7.15;;;2.10;;
54881;SDS011;40775;51.448;4.742;2024-01-25T00:14:10;7.30;;;2.05;;
54881;SDS011;40775;51.448;4.742;2024-01-25T00:16:41;12.85;;;2.50;;
54881;SDS011;40775;51.448;4.742;2024-01-25T00:19:08;8.65;;;2.28;;
54881;SDS011;40775;51.448;4.742;2024-01-25T00:21:41;7.03;;;2.53;;
54881;SDS011;40775;51.448;4.742;2024-01-25T00:24:13;7.30;;;2.05;;
54881;SDS011;40775;51.448;4.742;2024-01-25T00:26:40;6.07;;;2.25;;
54881;SDS011;40775;51.448;4.742;2024-01-25T00:29:07;8.45;;;2.22;;
54881;SDS011;40775;51.448;4.742;2024-01-25T00:31:34;10.05;;;2.25;;
54881;SDS011;40775;51.448;4.742;2024-01-25T00:34:01;9.40;;;2.30;;
54881;SDS011;40775;51.448;4.742;2024-01-25T00:36:29;7.20;;;2.05;;
54881;SDS011;40775;51.448;4.742;2024-01-25T00:38:57;7.55;;;2.53;;
54881;SDS011;40775;51.448;4.742;2024-01-25T00:41:24;7.63;;;1.92;;
54881;SDS011;40775;51.448;4.742;2024-01-25T00:43:52;3.05;;;0.90;;
54881;SDS011;40775;51.448;4.742;2024-01-25T00:46:19;7.63;;;2.05;;
54881;SDS011;40775;51.448;4.742;2024-01-25T00:48:47;8.93;;;2.28;;
54881;SDS011;40775;51.448;4.742;2024-01-25T00:51:16;7.38;;;1.75;;
54881;SDS011;40775;51.448;4.742;2024-01-25T00:53:48;5.28;;;1.75;;
54881;SDS011;40775;51.448;4.742;2024-01-25T00:56:16;5.93;;;1.65;;
54881;SDS011;40775;51.448;4.742;2024-01-25T00:58:43;4.22;;;1.42;;
54881;SDS011;40775;51.448;4.742;2024-01-25T01:01:11;3.80;;;1.30;;
54881;SDS011;40775;51.448;4.742;2024-01-25T01:03:38;6.38;;;1.88;;
54881;SDS011;40775;51.448;4.742;2024-01-25T01:06:06;5.50;;;1.85;;
54881;SDS011;40775;51.448;4.742;2024-01-25T01:08:35;12.52;;;1.80;;
54881;SDS011;40775;51.448;4.742;2024-01-25T01:11:03;4.90;;;1.48;;
54881;SDS011;40775;51.448;4.742;2024-01-25T01:13:30;5.90;;;1.45;;
54881;SDS011;40775;51.448;4.742;2024-01-25T01:15:57;3.63;;;1.52;;
54881;SDS011;40775;51.448;4.742;2024-01-25T01:18:25;5.43;;;1.90;;
54881;SDS011;40775;51.448;4.742;2024-01-25T01:20:52;6.35;;;1.33;;
54881;SDS011;40775;51.448;4.742;2024-01-25T01:23:19;7.57;;;2.10;;
54881;SDS011;40775;51.448;4.742;2024-01-25T01:25:46;5.25;;;1.75;;
54881;SDS011;40775;51.448;4.742;2024-01-25T01:28:13;7.07;;;1.80;;
54881;SDS011;40775;51.448;4.742;2024-01-25T01:30:41;5.60;;;1.38;;
54881;SDS011;40775;51.448;4.742;2024-01-25T01:33:08;2.60;;;1.10;;
54881;SDS011;40775;51.448;4.742;2024-01-25T01:35:36;8.50;;;2.10;;
54881;SDS011;40775;51.448;4.742;2024-01-25T01:38:03;6.22;;;1.60;;
54881;SDS011;40775;51.448;4.742;2024-01-25T01:40:30;6.22;;;1.50;;
54881;SDS011;40775;51.448;4.742;2024-01-25T01:43:01;7.22;;;1.90;;
54881;SDS011;40775;51.448;4.742;2024-01-25T01:45:29;5.22;;;1.30;;
54881;SDS011;40775;51.448;4.742;2024-01-25T01:47:56;2.83;;;1.30;;
54881;SDS011;40775;51.448;4.742;2024-01-25T01:50:25;6.07;;;1.73;;
54881;SDS011;40775;51.448;4.742;2024-01-25T01:52:53;5.32;;;1.40;;
54881;SDS011;40775;51.448;4.742;2024-01-25T01:55:21;6.43;;;1.98;;
54881;SDS011;40775;51.448;4.742;2024-01-25T01:57:49;5.07;;;1.30;;
54881;SDS011;40775;51.448;4.742;2024-01-25T02:00:17;7.05;;;1.83;;
54881;SDS011;40775;51.448;4.742;2024-01-25T02:02:46;7.15;;;1.50;;
54881;SDS011;40775;51.448;4.742;2024-01-25T02:05:13;4.82;;;1.58;;
54881;SDS011;40775;51.448;4.742;2024-01-25T02:07:40;4.32;;;1.92;;
54881;SDS011;40775;51.448;4.742;2024-01-25T02:10:09;4.60;;;1.40;;
54881;SDS011;40775;51.448;4.742;2024-01-25T02:12:37;5.78;;;1.80;;
54881;SDS011;40775;51.448;4.742;2024-01-25T02:15:04;6.97;;;1.80;;
54881;SDS011;40775;51.448;4.742;2024-01-25T02:17:32;7.13;;;1.80;;
54881;SDS011;40775;51.448;4.742;2024-01-25T02:19:59;5.47;;;1.80;;
54881;SDS011;40775;51.448;4.742;2024-01-25T02:22:29;6.20;;;1.45;;
54881;SDS011;40775;51.448;4.742;2024-01-25T02:24:56;5.35;;;1.25;;
54881;SDS011;40775;51.448;4.742;2024-01-25T02:27:23;6.38;;;2.08;;
54881;SDS011;40775;51.448;4.742;2024-01-25T02:29:50;5.50;;;1.60;;
54881;SDS011;40775;51.448;4.742;2024-01-25T02:32:17;5.35;;;1.38;;
54881;SDS011;40775;51.448;4.742;2024-01-25T02:34:44;4.82;;;1.60;;
54881;SDS011;40775;51.448;4.742;2024-01-25T02:37:12;8.55;;;1.95;;
54881;SDS011;40775;51.448;4.742;2024-01-25T02:39:40;6.05;;;1.83;;
54881;SDS011;40775;51.448;4.742;2024-01-25T02:42:07;6.45;;;1.35;;
54881;SDS011;40775;51.448;4.742;2024-01-25T02:44:34;5.22;;;1.33;;
54881;SDS011;40775;51.448;4.742;2024-01-25T02:47:01;6.25;;;1.60;;
54881;SDS011;40775;51.448;4.742;2024-01-25T02:49:28;4.88;;;1.63;;
54881;SDS011;40775;51.448;4.742;2024-01-25T02:51:56;6.95;;;1.75;;
54881;SDS011;40775;51.448;4.742;2024-01-25T02:54:23;3.70;;;0.75;;
54881;SDS011;40775;51.448;4.742;2024-01-25T02:56:50;5.88;;;1.95;;
54881;SDS011;40775;51.448;4.742;2024-01-25T02:59:17;6.13;;;1.58;;
54881;SDS011;40775;51.448;4.742;2024-01-25T03:01:44;5.78;;;1.25;;
54881;SDS011;40775;51.448;4.742;2024-01-25T03:04:12;4.95;;;1.52;;
54881;SDS011;40775;51.448;4.742;2024-01-25T03:06:39;4.85;;;1.35;;
54881;SDS011;40775;51.448;4.742;2024-01-25T03:09:07;3.05;;;0.98;;
54881;SDS011;40775;51.448;4.742;2024-01-25T03:11:34;4.35;;;1.27;;
54881;SDS011;40775;51.448;4.742;2024-01-25T03:14:01;4.80;;;1.33;;
54881;SDS011;40775;51.448;4.742;2024-01-25T03:16:28;4.55;;;1.27;;
54881;SDS011;40775;51.448;4.742;2024-01-25T03:18:55;3.53;;;1.30;;
54881;SDS011;40775;51.448;4.742;2024-01-25T03:21:22;7.05;;;1.20;;
54881;SDS011;40775;51.448;4.742;2024-01-25T03:23:49;5.25;;;1.50;;
54881;SDS011;40775;51.448;4.742;2024-01-25T03:26:17;4.78;;;1.20;;
54881;SDS011;40775;51.448;4.742;2024-01-25T03:28:44;13.57;;;1.83;;
54881;SDS011;40775;51.448;4.742;2024-01-25T03:31:11;6.90;;;1.48;;
54881;SDS011;40775;51.448;4.742;2024-01-25T03:33:38;6.53;;;1.77;;
54881;SDS011;40775;51.448;4.742;2024-01-25T03:36:05;5.85;;;1.98;;
54881;SDS011;40775;51.448;4.742;2024-01-25T03:38:33;6.50;;;1.42;;
54881;SDS011;40775;51.448;4.742;2024-01-25T03:41:00;3.47;;;1.25;;
54881;SDS011;40775;51.448;4.742;2024-01-25T03:43:27;6.32;;;1.38;;
54881;SDS011;40775;51.448;4.742;2024-01-25T03:46:08;4.45;;;1.13;;
54881;SDS011;40775;51.448;4.742;2024-01-25T03:48:35;3.65;;;1.52;;
54881;SDS011;40775;51.448;4.742;2024-01-25T03:51:02;4.90;;;1.15;;
54881;SDS011;40775;51.448;4.742;2024-01-25T03:53:29;4.05;;;1.35;;
54881;SDS011;40775;51.448;4.742;2024-01-25T03:55:57;6.47;;;1.38;;
54881;SDS011;40775;51.448;4.742;2024-01-25T03:58:24;6.80;;;2.20;;
54881;SDS011;40775;51.448;4.742;2024-01-25T04:00:51;3.90;;;1.48;;
54881;SDS011;40775;51.448;4.742;2024-01-25T04:03:18;4.25;;;1.40;;
54881;SDS011;40775;51.448;4.742;2024-01-25T04:05:45;5.65;;;1.33;;
54881;SDS011;40775;51.448;4.742;2024-01-25T04:08:12;4.45;;;1.67;;
54881;SDS011;40775;51.448;4.742;2024-01-25T04:10:39;3.78;;;1.55;;
54881;SDS011;40775;51.448;4.742;2024-01-25T04:13:06;4.22;;;1.60;;
54881;SDS011;40775;51.448;4.742;2024-01-25T04:15:33;5.82;;;1.63;;
54881;SDS011;40775;51.448;4.742;2024-01-25T04:18:01;4.75;;;1.27;;
54881;SDS011;40775;51.448;4.742;2024-01-25T04:20:28;5.38;;;1.70;;
54881;SDS011;40775;51.448;4.742;2024-01-25T04:22:57;6.53;;;1.58;;
54881;SDS011;40775;51.448;4.742;2024-01-25T04:25:25;3.70;;;1.42;;
54881;SDS011;40775;51.448;4.742;2024-01-25T04:27:53;2.75;;;1.17;;
54881;SDS011;40775;51.448;4.742;2024-01-25T04:30:21;5.85;;;1.17;;
54881;SDS011;40775;51.448;4.742;2024-01-25T04:32:48;3.95;;;1.50;;
54881;SDS011;40775;51.448;4.742;2024-01-25T04:35:15;4.25;;;1.40;;
54881;SDS011;40775;51.448;4.742;2024-01-25T04:37:42;6.38;;;1.30;;
54881;SDS011;40775;51.448;4.742;2024-01-25T04:40:10;3.50;;;1.02;;
54881;SDS011;40775;51.448;4.742;2024-01-25T04:42:37;3.90;;;1.58;;
54881;SDS011;40775;51.448;4.742;2024-01-25T04:45:04;5.55;;;1.40;;
54881;SDS011;40775;51.448;4.742;2024-01-25T04:47:32;2.67;;;1.20;;
54881;SDS011;40775;51.448;4.742;2024-01-25T04:49:59;3.05;;;1.10;;
54881;SDS011;40775;51.448;4.742;2024-01-25T04:52:26;2.95;;;1.05;;
54881;SDS011;40775;51.448;4.742;2024-01-25T04:54:53;7.90;;;1.80;;
54881;SDS011;40775;51.448;4.742;2024-01-25T04:57:20;6.65;;;1.75;;
54881;SDS011;40775;51.448;4.742;2024-01-25T04:59:47;2.78;;;1.13;;
54881;SDS011;40775;51.448;4.742;2024-01-25T05:02:14;6.57;;;1.98;;
54881;SDS011;40775;51.448;4.742;2024-01-25T05:04:42;3.72;;;1.25;;
54881;SDS011;40775;51.448;4.742;2024-01-25T05:07:11;3.63;;;1.40;;
54881;SDS011;40775;51.448;4.742;2024-01-25T05:09:39;2.55;;;0.90;;
54881;SDS011;40775;51.448;4.742;2024-01-25T05:12:06;7.32;;;1.63;;
54881;SDS011;40775;51.448;4.742;2024-01-25T05:14:33;4.43;;;1.15;;
54881;SDS011;40775;51.448;4.742;2024-01-25T05:17:00;6.53;;;1.55;;
54881;SDS011;40775;51.448;4.742;2024-01-25T05:19:27;3.13;;;1.00;;
54881;SDS011;40775;51.448;4.742;2024-01-25T05:21:54;6.18;;;1.23;;
54881;SDS011;40775;51.448;4.742;2024-01-25T05:24:22;5.28;;;1.40;;
54881;SDS011;40775;51.448;4.742;2024-01-25T05:26:49;4.57;;;1.42;;
54881;SDS011;40775;51.448;4.742;2024-01-25T05:29:16;4.28;;;1.13;;
54881;SDS011;40775;51.448;4.742;2024-01-25T05:31:43;4.53;;;1.45;;
54881;SDS011;40775;51.448;4.742;2024-01-25T05:34:10;5.10;;;1.50;;
54881;SDS011;40775;51.448;4.742;2024-01-25T05:36:38;4.38;;;1.17;;
54881;SDS011;40775;51.448;4.742;2024-01-25T05:39:05;3.70;;;1.15;;
54881;SDS011;40775;51.448;4.742;2024-01-25T05:41:33;4.55;;;1.50;;
54881;SDS011;40775;51.448;4.742;2024-01-25T05:44:00;5.68;;;1.88;;
54881;SDS011;40775;51.448;4.742;2024-01-25T05:46:27;3.33;;;1.30;;
54881;SDS011;40775;51.448;4.742;2024-01-25T05:48:54;4.78;;;1.35;;
54881;SDS011;40775;51.448;4.742;2024-01-25T05:51:22;7.30;;;1.38;;
54881;SDS011;40775;51.448;4.742;2024-01-25T05:53:49;4.93;;;1.60;;
54881;SDS011;40775;51.448;4.742;2024-01-25T05:56:16;7.85;;;1.95;;
54881;SDS011;40775;51.448;4.742;2024-01-25T05:58:43;6.15;;;2.15;;
54881;SDS011;40775;51.448;4.742;2024-01-25T06:01:10;1.98;;;0.95;;
54881;SDS011;40775;51.448;4.742;2024-01-25T06:03:38;6.28;;;1.75;;
54881;SDS011;40775;51.448;4.742;2024-01-25T06:06:05;3.03;;;1.40;;
54881;SDS011;40775;51.448;4.742;2024-01-25T06:08:34;3.33;;;1.15;;
54881;SDS011;40775;51.448;4.742;2024-01-25T06:11:02;3.38;;;1.40;;
54881;SDS011;40775;51.448;4.742;2024-01-25T06:13:29;5.60;;;1.45;;
54881;SDS011;40775;51.448;4.742;2024-01-25T06:15:58;2.90;;;1.33;;
54881;SDS011;40775;51.448;4.742;2024-01-25T06:18:26;2.70;;;1.35;;
54881;SDS011;40775;51.448;4.742;2024-01-25T06:20:54;3.63;;;1.40;;
54881;SDS011;40775;51.448;4.742;2024-01-25T06:23:21;5.45;;;2.05;;
54881;SDS011;40775;51.448;4.742;2024-01-25T06:25:48;4.15;;;1.55;;
54881;SDS011;40775;51.448;4.742;2024-01-25T06:28:16;4.32;;;1.20;;
54881;SDS011;40775;51.448;4.742;2024-01-25T06:30:44;4.38;;;1.17;;
54881;SDS011;40775;51.448;4.742;2024-01-25T06:33:11;4.30;;;1.42;;
54881;SDS011;40775;51.448;4.742;2024-01-25T06:35:38;3.25;;;1.13;;
54881;SDS011;40775;51.448;4.742;2024-01-25T06:38:05;4.57;;;1.30;;
54881;SDS011;40775;51.448;4.742;2024-01-25T06:40:33;6.25;;;1.52;;
54881;SDS011;40775;51.448;4.742;2024-01-25T06:43:00;4.65;;;1.50;;
54881;SDS011;40775;51.448;4.742;2024-01-25T06:45:27;9.75;;;4.22;;
54881;SDS011;40775;51.448;4.742;2024-01-25T06:47:54;11.48;;;3.67;;
54881;SDS011;40775;51.448;4.742;2024-01-25T06:50:21;4.43;;;1.48;;
54881;SDS011;40775;51.448;4.742;2024-01-25T06:52:49;2.83;;;1.20;;
54881;SDS011;40775;51.448;4.742;2024-01-25T06:55:16;2.72;;;1.15;;
54881;SDS011;40775;51.448;4.742;2024-01-25T06:57:43;5.40;;;1.35;;
54881;SDS011;40775;51.448;4.742;2024-01-25T07:00:12;3.33;;;1.20;;
54881;SDS011;40775;51.448;4.742;2024-01-25T07:02:42;6.18;;;1.65;;
54881;SDS011;40775;51.448;4.742;2024-01-25T07:05:09;1.98;;;1.00;;
54881;SDS011;40775;51.448;4.742;2024-01-25T07:07:37;3.63;;;1.45;;
54881;SDS011;40775;51.448;4.742;2024-01-25T07:10:05;6.38;;;1.40;;
54881;SDS011;40775;51.448;4.742;2024-01-25T07:12:33;2.47;;;0.93;;
54881;SDS011;40775;51.448;4.742;2024-01-25T07:15:00;2.40;;;1.08;;
54881;SDS011;40775;51.448;4.742;2024-01-25T07:17:29;3.80;;;1.35;;
54881;SDS011;40775;51.448;4.742;2024-01-25T07:19:57;3.40;;;1.25;;
54881;SDS011;40775;51.448;4.742;2024-01-25T07:22:24;4.95;;;1.10;;
54881;SDS011;40775;51.448;4.742;2024-01-25T07:24:51;2.90;;;0.90;;
54881;SDS011;40775;51.448;4.742;2024-01-25T07:27:18;3.30;;;1.13;;
54881;SDS011;40775;51.448;4.742;2024-01-25T07:29:45;3.00;;;1.20;;
54881;SDS011;40775;51.448;4.742;2024-01-25T07:32:12;2.38;;;0.85;;
54881;SDS011;40775;51.448;4.742;2024-01-25T07:34:39;5.10;;;1.63;;
54881;SDS011;40775;51.448;4.742;2024-01-25T07:37:06;1.65;;;0.70;;
54881;SDS011;40775;51.448;4.742;2024-01-25T07:39:34;3.20;;;1.20;;
54881;SDS011;40775;51.448;4.742;2024-01-25T07:42:01;1.67;;;0.98;;
54881;SDS011;40775;51.448;4.742;2024-01-25T07:44:28;1.45;;;0.73;;
54881;SDS011;40775;51.448;4.742;2024-01-25T07:46:55;2.15;;;1.02;;
54881;SDS011;40775;51.448;4.742;2024-01-25T07:49:22;2.55;;;0.82;;
54881;SDS011;40775;51.448;4.742;2024-01-25T07:51:49;3.40;;;1.48;;
54881;SDS011;40775;51.448;4.742;2024-01-25T07:54:16;2.53;;;1.08;;
54881;SDS011;40775;51.448;4.742;2024-01-25T07:56:43;2.45;;;1.00;;
54881;SDS011;40775;51.448;4.742;2024-01-25T07:59:10;2.55;;;0.80;;
54881;SDS011;40775;51.448;4.742;2024-01-25T08:01:37;2.63;;;0.95;;
54881;SDS011;40775;51.448;4.742;2024-01-25T08:04:04;3.22;;;1.13;;
54881;SDS011;40775;51.448;4.742;2024-01-25T08:06:32;2.38;;;0.93;;
54881;SDS011;40775;51.448;4.742;2024-01-25T08:08:59;4.32;;;1.50;;
54881;SDS011;40775;51.448;4.742;2024-01-25T08:11:26;3.60;;;1.25;;
54881;SDS011;40775;51.448;4.742;2024-01-25T08:13:53;2.60;;;0.95;;
54881;SDS011;40775;51.448;4.742;2024-01-25T08:16:20;1.85;;;0.90;;
54881;SDS011;40775;51.448;4.742;2024-01-25T08:18:47;2.95;;;1.15;;
54881;SDS011;40775;51.448;4.742;2024-01-25T08:21:16;2.60;;;1.13;;
54881;SDS011;40775;51.448;4.742;2024-01-25T08:23:43;2.58;;;1.20;;
54881;SDS011;40775;51.448;4.742;2024-01-25T08:26:10;5.10;;;1.23;;
54881;SDS011;40775;51.448;4.742;2024-01-25T08:28:39;4.00;;;1.42;;
54881;SDS011;40775;51.448;4.742;2024-01-25T08:31:07;2.50;;;1.02;;
54881;SDS011;40775;51.448;4.742;2024-01-25T08:33:34;4.43;;;1.33;;
54881;SDS011;40775;51.448;4.742;2024-01-25T08:36:01;4.88;;;1.10;;
54881;SDS011;40775;51.448;4.742;2024-01-25T08:38:29;2.53;;;0.82;;
54881;SDS011;40775;51.448;4.742;2024-01-25T08:40:56;3.22;;;1.10;;
54881;SDS011;40775;51.448;4.742;2024-01-25T08:43:23;3.03;;;1.05;;
54881;SDS011;40775;51.448;4.742;2024-01-25T08:45:50;2.17;;;1.05;;
54881;SDS011;40775;51.448;4.742;2024-01-25T08:48:17;3.80;;;1.27;;
54881;SDS011;40775;51.448;4.742;2024-01-25T08:50:44;1.98;;;0.77;;
54881;SDS011;40775;51.448;4.742;2024-01-25T08:53:12;2.72;;;1.17;;
54881;SDS011;40775;51.448;4.742;2024-01-25T08:55:39;4.07;;;1.15;;
54881;SDS011;40775;51.448;4.742;2024-01-25T08:58:07;4.28;;;1.05;;
54881;SDS011;40775;51.448;4.742;2024-01-25T09:00:34;4.32;;;1.02;;
54881;SDS011;40775;51.448;4.742;2024-01-25T09:03:01;3.67;;;0.88;;
54881;SDS011;40775;51.448;4.742;2024-01-25T09:05:28;1.05;;;0.70;;
54881;SDS011;40775;51.448;4.742;2024-01-25T09:07:55;3.00;;;1.15;;
54881;SDS011;40775;51.448;4.742;2024-01-25T09:10:23;2.63;;;0.68;;
54881;SDS011;40775;51.448;4.742;2024-01-25T09:12:50;1.85;;;0.60;;
54881;SDS011;40775;51.448;4.742;2024-01-25T09:15:17;5.53;;;0.90;;
54881;SDS011;40775;51.448;4.742;2024-01-25T09:17:44;4.57;;;1.05;;
54881;SDS011;40775;51.448;4.742;2024-01-25T09:20:11;6.80;;;1.27;;
54881;SDS011;40775;51.448;4.742;2024-01-25T09:22:39;3.72;;;0.98;;
54881;SDS011;40775;51.448;4.742;2024-01-25T09:25:06;3.17;;;1.00;;
54881;SDS011;40775;51.448;4.742;2024-01-25T09:27:35;2.03;;;0.88;;
54881;SDS011;40775;51.448;4.742;2024-01-25T09:30:05;2.10;;;1.00;;
54881;SDS011;40775;51.448;4.742;2024-01-25T09:32:33;2.05;;;0.90;;
54881;SDS011;40775;51.448;4.742;2024-01-25T09:35:00;4.07;;;0.85;;
54881;SDS011;40775;51.448;4.742;2024-01-25T09:37:28;5.00;;;1.23;;
54881;SDS011;40775;51.448;4.742;2024-01-25T09:39:56;3.90;;;0.88;;
54881;SDS011;40775;51.448;4.742;2024-01-25T09:42:25;2.08;;;1.05;;
54881;SDS011;40775;51.448;4.742;2024-01-25T09:44:54;2.70;;;1.00;;
54881;SDS011;40775;51.448;4.742;2024-01-25T09:47:21;3.67;;;1.23;;
54881;SDS011;40775;51.448;4.742;2024-01-25T09:49:49;2.55;;;0.90;;
54881;SDS011;40775;51.448;4.742;2024-01-25T09:52:17;2.17;;;0.98;;
54881;SDS011;40775;51.448;4.742;2024-01-25T09:54:52;1.98;;;1.00;;
54881;SDS011;40775;51.448;4.742;2024-01-25T09:57:22;2.20;;;0.80;;
54881;SDS011;40775;51.448;4.742;2024-01-25T09:59:53;5.10;;;1.45;;
54881;SDS011;40775;51.448;4.742;2024-01-25T10:02:21;2.80;;;1.00;;
54881;SDS011;40775;51.448;4.742;2024-01-25T10:04:49;2.30;;;0.93;;
54881;SDS011;40775;51.448;4.742;2024-01-25T10:07:36;4.35;;;1.52;;
54881;SDS011;40775;51.448;4.742;2024-01-25T10:10:07;2.30;;;0.98;;
54881;SDS011;40775;51.448;4.742;2024-01-25T10:12:40;5.20;;;1.25;;
54881;SDS011;40775;51.448;4.742;2024-01-25T10:15:10;4.10;;;0.90;;
54881;SDS011;40775;51.448;4.742;2024-01-25T10:17:38;8.40;;;1.08;;
54881;SDS011;40775;51.448;4.742;2024-01-25T10:20:26;2.67;;;1.02;;
54881;SDS011;40775;51.448;4.742;2024-01-25T10:22:57;3.30;;;1.00;;
54881;SDS011;40775;51.448;4.742;2024-01-25T10:25:26;3.53;;;1.33;;
54881;SDS011;40775;51.448;4.742;2024-01-25T10:27:54;1.70;;;0.80;;
54881;SDS011;40775;51.448;4.742;2024-01-25T10:30:21;3.17;;;1.38;;
54881;SDS011;40775;51.448;4.742;2024-01-25T10:32:50;3.58;;;1.25;;
54881;SDS011;40775;51.448;4.742;2024-01-25T10:35:19;5.38;;;1.65;;
54881;SDS011;40775;51.448;4.742;2024-01-25T10:37:50;4.30;;;1.60;;
54881;SDS011;40775;51.448;4.742;2024-01-25T10:40:19;2.10;;;0.90;;
54881;SDS011;40775;51.448;4.742;2024-01-25T10:42:48;5.80;;;1.60;;
54881;SDS011;40775;51.448;4.742;2024-01-25T10:45:18;4.05;;;1.15;;
54881;SDS011;40775;51.448;4.742;2024-01-25T10:47:48;2.40;;;1.15;;
54881;SDS011;40775;51.448;4.742;2024-01-25T10:50:15;5.88;;;1.40;;
54881;SDS011;40775;51.448;4.742;2024-01-25T10:52:43;6.53;;;1.08;;
54881;SDS011;40775;51.448;4.742;2024-01-25T10:55:11;4.03;;;1.60;;
54881;SDS011;40775;51.448;4.742;2024-01-25T10:57:43;7.60;;;1.48;;
54881;SDS011;40775;51.448;4.742;2024-01-25T11:00:15;5.00;;;1.20;;
54881;SDS011;40775;51.448;4.742;2024-01-25T11:02:43;6.85;;;1.50;;
54881;SDS011;40775;51.448;4.742;2024-01-25T11:05:12;4.25;;;1.40;;
54881;SDS011;40775;51.448;4.742;2024-01-25T11:07:44;3.77;;;1.40;;
54881;SDS011;40775;51.448;4.742;2024-01-25T11:10:16;3.45;;;1.65;;
54881;SDS011;40775;51.448;4.742;2024-01-25T11:12:48;3.55;;;1.50;;
54881;SDS011;40775;51.448;4.742;2024-01-25T11:15:23;2.22;;;1.00;;
54881;SDS011;40775;51.448;4.742;2024-01-25T11:18:03;3.67;;;1.27;;
54881;SDS011;40775;51.448;4.742;2024-01-25T11:20:35;3.33;;;1.20;;
54881;SDS011;40775;51.448;4.742;2024-01-25T11:23:04;2.75;;;1.02;;
54881;SDS011;40775;51.448;4.742;2024-01-25T11:25:36;3.33;;;1.20;;
54881;SDS011;40775;51.448;4.742;2024-01-25T11:28:05;3.58;;;0.85;;
54881;SDS011;40775;51.448;4.742;2024-01-25T11:30:32;3.05;;;1.58;;
54881;SDS011;40775;51.448;4.742;2024-01-25T11:33:04;4.68;;;1.33;;
54881;SDS011;40775;51.448;4.742;2024-01-25T11:35:32;4.93;;;1.23;;
54881;SDS011;40775;51.448;4.742;2024-01-25T11:38:00;3.10;;;0.90;;
54881;SDS011;40775;51.448;4.742;2024-01-25T11:40:27;5.03;;;1.30;;
54881;SDS011;40775;51.448;4.742;2024-01-25T11:42:57;4.75;;;1.52;;
54881;SDS011;40775;51.448;4.742;2024-01-25T11:45:25;3.50;;;1.38;;
54881;SDS011;40775;51.448;4.742;2024-01-25T11:47:52;1.92;;;1.40;;
54881;SDS011;40775;51.448;4.742;2024-01-25T11:50:19;4.57;;;1.80;;
54881;SDS011;40775;51.448;4.742;2024-01-25T11:52:49;4.32;;;1.15;;
54881;SDS011;40775;51.448;4.742;2024-01-25T11:55:17;3.40;;;1.30;;
54881;SDS011;40775;51.448;4.742;2024-01-25T11:57:44;4.85;;;1.63;;
54881;SDS011;40775;51.448;4.742;2024-01-25T12:00:14;8.48;;;2.10;;
54881;SDS011;40775;51.448;4.742;2024-01-25T12:02:44;4.03;;;1.67;;
54881;SDS011;40775;51.448;4.742;2024-01-25T12:05:11;2.88;;;1.55;;
54881;SDS011;40775;51.448;4.742;2024-01-25T12:07:40;6.53;;;1.85;;
54881;SDS011;40775;51.448;4.742;2024-01-25T12:10:08;5.50;;;1.50;;
54881;SDS011;40775;51.448;4.742;2024-01-25T12:12:45;3.97;;;1.50;;
54881;SDS011;40775;51.448;4.742;2024-01-25T12:15:15;6.82;;;1.85;;
54881;SDS011;40775;51.448;4.742;2024-01-25T12:17:42;4.82;;;1.52;;
54881;SDS011;40775;51.448;4.742;2024-01-25T12:20:09;5.00;;;1.83;;
54881;SDS011;40775;51.448;4.742;2024-01-25T12:22:38;4.18;;;1.77;;
54881;SDS011;40775;51.448;4.742;2024-01-25T12:25:06;13.57;;;1.73;;
54881;SDS011;40775;51.448;4.742;2024-01-25T12:27:37;8.52;;;3.47;;
54881;SDS011;40775;51.448;4.742;2024-01-25T12:30:08;6.35;;;2.45;;
54881;SDS011;40775;51.448;4.742;2024-01-25T12:32:35;5.72;;;1.92;;
54881;SDS011;40775;51.448;4.742;2024-01-25T12:35:03;5.85;;;2.05;;
54881;SDS011;40775;51.448;4.742;2024-01-25T12:37:31;3.50;;;1.75;;
54881;SDS011;40775;51.448;4.742;2024-01-25T12:39:58;5.43;;;1.95;;
54881;SDS011;40775;51.448;4.742;2024-01-25T12:42:26;5.75;;;2.08;;
54881;SDS011;40775;51.448;4.742;2024-01-25T12:44:54;3.67;;;1.98;;
54881;SDS011;40775;51.448;4.742;2024-01-25T12:47:21;6.60;;;2.13;;
54881;SDS011;40775;51.448;4.742;2024-01-25T12:49:49;3.17;;;1.88;;
54881;SDS011;40775;51.448;4.742;2024-01-25T12:52:16;5.60;;;2.30;;
54881;SDS011;40775;51.448;4.742;2024-01-25T12:54:44;4.55;;;1.83;;
54881;SDS011;40775;51.448;4.742;2024-01-25T12:57:11;5.45;;;2.70;;
54881;SDS011;40775;51.448;4.742;2024-01-25T12:59:39;5.38;;;2.33;;
54881;SDS011;40775;51.448;4.742;2024-01-25T13:02:06;5.53;;;2.15;;
54881;SDS011;40775;51.448;4.742;2024-01-25T13:04:34;7.22;;;2.60;;
54881;SDS011;40775;51.448;4.742;2024-01-25T13:07:01;10.60;;;3.22;;
54881;SDS011;40775;51.448;4.742;2024-01-25T13:09:29;7.63;;;2.05;;
54881;SDS011;40775;51.448;4.742;2024-01-25T13:12:00;11.30;;;3.10;;
54881;SDS011;40775;51.448;4.742;2024-01-25T13:14:27;5.72;;;2.58;;
54881;SDS011;40775;51.448;4.742;2024-01-25T13:16:55;8.80;;;3.33;;
54881;SDS011;40775;51.448;4.742;2024-01-25T13:19:22;5.40;;;2.60;;
54881;SDS011;40775;51.448;4.742;2024-01-25T13:21:49;5.78;;;2.53;;
54881;SDS011;40775;51.448;4.742;2024-01-25T13:24:18;3.45;;;1.60;;
54881;SDS011;40775;51.448;4.742;2024-01-25T13:26:46;3.92;;;1.60;;
54881;SDS011;40775;51.448;4.742;2024-01-25T13:29:13;6.13;;;2.20;;
54881;SDS011;40775;51.448;4.742;2024-01-25T13:31:40;8.85;;;3.30;;
54881;SDS011;40775;51.448;4.742;2024-01-25T13:34:07;8.80;;;3.20;;
54881;SDS011;40775;51.448;4.742;2024-01-25T13:36:35;7.35;;;2.70;;
54881;SDS011;40775;51.448;4.742;2024-01-25T13:39:02;5.63;;;2.53;;
54881;SDS011;40775;51.448;4.742;2024-01-25T13:41:30;9.90;;;4.28;;
54881;SDS011;40775;51.448;4.742;2024-01-25T13:43:57;8.68;;;2.50;;
54881;SDS011;40775;51.448;4.742;2024-01-25T13:46:24;8.27;;;2.97;;
54881;SDS011;40775;51.448;4.742;2024-01-25T13:48:52;4.60;;;1.98;;
54881;SDS011;40775;51.448;4.742;2024-01-25T13:51:19;4.55;;;2.40;;
54881;SDS011;40775;51.448;4.742;2024-01-25T13:53:46;9.30;;;2.60;;
54881;SDS011;40775;51.448;4.742;2024-01-25T13:56:15;4.30;;;1.92;;
54881;SDS011;40775;51.448;4.742;2024-01-25T13:58:43;6.90;;;2.53;;
54881;SDS011;40775;51.448;4.742;2024-01-25T14:01:10;5.85;;;2.78;;
54881;SDS011;40775;51.448;4.742;2024-01-25T14:03:37;8.10;;;2.65;;
54881;SDS011;40775;51.448;4.742;2024-01-25T14:06:07;5.03;;;1.95;;
54881;SDS011;40775;51.448;4.742;2024-01-25T14:08:36;8.32;;;2.75;;
54881;SDS011;40775;51.448;4.742;2024-01-25T14:11:03;6.20;;;2.75;;
54881;SDS011;40775;51.448;4.742;2024-01-25T14:13:32;5.32;;;2.60;;
54881;SDS011;40775;51.448;4.742;2024-01-25T14:16:00;5.40;;;2.50;;
54881;SDS011;40775;51.448;4.742;2024-01-25T14:18:28;6.18;;;2.65;;
54881;SDS011;40775;51.448;4.742;2024-01-25T14:20:59;6.50;;;2.92;;
54881;SDS011;40775;51.448;4.742;2024-01-25T14:23:26;7.50;;;2.45;;
54881;SDS011;40775;51.448;4.742;2024-01-25T14:25:54;4.82;;;2.40;;
54881;SDS011;40775;51.448;4.742;2024-01-25T14:28:21;7.55;;;2.30;;
54881;SDS011;40775;51.448;4.742;2024-01-25T14:31:13;4.43;;;1.77;;
54881;SDS011;40775;51.448;4.742;2024-01-25T14:34:04;4.10;;;2.25;;
54881;SDS011;40775;51.448;4.742;2024-01-25T14:36:55;4.53;;;1.63;;
54881;SDS011;40775;51.448;4.742;2024-01-25T14:39:46;6.38;;;2.53;;
54881;SDS011;40775;51.448;4.742;2024-01-25T14:42:37;3.83;;;1.80;;
54881;SDS011;40775;51.448;4.742;2024-01-25T14:45:29;5.57;;;2.10;;
54881;SDS011;40775;51.448;4.742;2024-01-25T14:47:56;5.20;;;1.80;;
54881;SDS011;40775;51.448;4.742;2024-01-25T14:50:23;4.53;;;2.35;;
54881;SDS011;40775;51.448;4.742;2024-01-25T14:52:51;3.65;;;1.63;;
54881;SDS011;40775;51.448;4.742;2024-01-25T14:55:42;4.32;;;2.15;;